sensor_id;sensor_type;location;lat;lon;timestamp;temperature;humidity
22065;DHT22;11197;53.110;8.468;2023-07-31T00:00:16;16.80;99.90
22065;DHT22;11197;53.110;8.468;2023-07-31T00:02:42;16.80;99.90
22065;DHT22;11197;53.110;8.468;2023-07-31T00:05:08;16.90;99.90
22065;DHT22;11197;53.110;8.468;2023-07-31T00:07:35;16.90;99.90
22065;DHT22;11197;53.110;8.468;2023-07-31T00:10:00;16.90;99.90
22065;DHT22;11197;53.110;8.468;2023-07-31T00:12:26;16.90;99.90
22065;DHT22;11197;53.110;8.468;2023-07-31T00:14:52;16.90;99.90
22065;DHT22;11197;53.110;8.468;2023-07-31T00:17:18;16.90;99.90
22065;DHT22;11197;53.110;8.468;2023-07-31T00:19:43;16.90;99.90
22065;DHT22;11197;53.110;8.468;2023-07-31T00:22:11;16.90;99.90
22065;DHT22;11197;53.110;8.468;2023-07-31T00:24:37;16.90;99.90
22065;DHT22;11197;53.110;8.468;2023-07-31T00:27:03;16.90;99.90
22065;DHT22;11197;53.110;8.468;2023-07-31T00:29:29;16.90;99.90
22065;DHT22;11197;53.110;8.468;2023-07-31T00:31:56;16.80;99.90
22065;DHT22;11197;53.110;8.468;2023-07-31T00:34:22;16.80;99.90
22065;DHT22;11197;53.110;8.468;2023-07-31T00:36:48;16.80;99.90
22065;DHT22;11197;53.110;8.468;2023-07-31T00:39:15;16.90;99.90
22065;DHT22;11197;53.110;8.468;2023-07-31T00:41:44;16.80;99.90
22065;DHT22;11197;53.110;8.468;2023-07-31T00:44:09;16.80;99.90
22065;DHT22;11197;53.110;8.468;2023-07-31T00:46:35;16.80;99.90
22065;DHT22;11197;53.110;8.468;2023-07-31T00:49:02;16.80;99.90
22065;DHT22;11197;53.110;8.468;2023-07-31T00:51:28;16.80;99.90
22065;DHT22;11197;53.110;8.468;2023-07-31T00:53:55;16.80;99.90
22065;DHT22;11197;53.110;8.468;2023-07-31T00:56:22;16.80;99.90
22065;DHT22;11197;53.110;8.468;2023-07-31T00:58:48;16.80;99.90
22065;DHT22;11197;53.110;8.468;2023-07-31T01:01:14;16.80;99.90
22065;DHT22;11197;53.110;8.468;2023-07-31T01:03:40;16.70;99.90
22065;DHT22;11197;53.110;8.468;2023-07-31T01:06:22;16.70;99.90
22065;DHT22;11197;53.110;8.468;2023-07-31T01:11:29;16.70;99.90
22065;DHT22;11197;53.110;8.468;2023-07-31T01:13:56;16.70;99.90
22065;DHT22;11197;53.110;8.468;2023-07-31T01:16:22;16.70;99.90
22065;DHT22;11197;53.110;8.468;2023-07-31T01:18:48;16.70;99.90
22065;DHT22;11197;53.110;8.468;2023-07-31T01:26:38;16.70;99.90
22065;DHT22;11197;53.110;8.468;2023-07-31T01:29:20;16.70;99.90
22065;DHT22;11197;53.110;8.468;2023-07-31T01:31:50;16.70;99.90
22065;DHT22;11197;53.110;8.468;2023-07-31T01:34:19;16.70;99.90
22065;DHT22;11197;53.110;8.468;2023-07-31T01:36:46;16.70;99.90
22065;DHT22;11197;53.110;8.468;2023-07-31T01:39:12;16.60;99.90
22065;DHT22;11197;53.110;8.468;2023-07-31T01:41:37;16.70;99.90
22065;DHT22;11197;53.110;8.468;2023-07-31T01:44:04;16.60;99.90
22065;DHT22;11197;53.110;8.468;2023-07-31T01:46:30;16.60;99.90
22065;DHT22;11197;53.110;8.468;2023-07-31T01:48:55;16.60;99.90
22065;DHT22;11197;53.110;8.468;2023-07-31T01:51:21;16.60;99.90
22065;DHT22;11197;53.110;8.468;2023-07-31T01:53:47;16.50;99.90
22065;DHT22;11197;53.110;8.468;2023-07-31T01:56:12;16.50;99.90
22065;DHT22;11197;53.110;8.468;2023-07-31T01:58:38;16.40;99.90
22065;DHT22;11197;53.110;8.468;2023-07-31T02:01:04;16.40;99.90
22065;DHT22;11197;53.110;8.468;2023-07-31T02:03:29;16.40;99.90
22065;DHT22;11197;53.110;8.468;2023-07-31T02:05:55;16.40;99.90
22065;DHT22;11197;53.110;8.468;2023-07-31T02:08:24;16.30;99.90
22065;DHT22;11197;53.110;8.468;2023-07-31T02:10:51;16.30;99.90
22065;DHT22;11197;53.110;8.468;2023-07-31T02:13:17;16.20;99.90
22065;DHT22;11197;53.110;8.468;2023-07-31T02:15:43;16.20;99.90
22065;DHT22;11197;53.110;8.468;2023-07-31T02:18:09;16.20;99.90
22065;DHT22;11197;53.110;8.468;2023-07-31T02:20:35;16.20;99.90
22065;DHT22;11197;53.110;8.468;2023-07-31T02:23:01;16.20;99.90
22065;DHT22;11197;53.110;8.468;2023-07-31T02:25:27;16.20;99.90
22065;DHT22;11197;53.110;8.468;2023-07-31T02:27:53;16.20;99.90
22065;DHT22;11197;53.110;8.468;2023-07-31T02:30:19;16.20;99.90
22065;DHT22;11197;53.110;8.468;2023-07-31T02:32:44;16.20;99.90
22065;DHT22;11197;53.110;8.468;2023-07-31T02:35:10;16.10;99.90
22065;DHT22;11197;53.110;8.468;2023-07-31T02:37:43;16.10;99.90
22065;DHT22;11197;53.110;8.468;2023-07-31T02:40:09;16.10;99.90
22065;DHT22;11197;53.110;8.468;2023-07-31T02:42:35;16.10;99.90
22065;DHT22;11197;53.110;8.468;2023-07-31T02:45:01;16.10;99.90
22065;DHT22;11197;53.110;8.468;2023-07-31T02:47:27;16.10;99.90
22065;DHT22;11197;53.110;8.468;2023-07-31T02:49:53;16.10;99.90
22065;DHT22;11197;53.110;8.468;2023-07-31T02:52:19;16.10;99.90
22065;DHT22;11197;53.110;8.468;2023-07-31T02:54:45;16.10;99.90
22065;DHT22;11197;53.110;8.468;2023-07-31T02:57:11;16.10;99.90
22065;DHT22;11197;53.110;8.468;2023-07-31T02:59:36;16.10;99.90
22065;DHT22;11197;53.110;8.468;2023-07-31T03:02:02;16.10;99.90
22065;DHT22;11197;53.110;8.468;2023-07-31T03:04:28;16.10;99.90
22065;DHT22;11197;53.110;8.468;2023-07-31T03:06:55;16.10;99.90
22065;DHT22;11197;53.110;8.468;2023-07-31T03:09:20;16.10;99.90
22065;DHT22;11197;53.110;8.468;2023-07-31T03:11:46;16.10;99.90
22065;DHT22;11197;53.110;8.468;2023-07-31T03:14:12;16.00;99.90
22065;DHT22;11197;53.110;8.468;2023-07-31T03:16:38;16.00;99.90
22065;DHT22;11197;53.110;8.468;2023-07-31T03:19:04;16.10;99.90
22065;DHT22;11197;53.110;8.468;2023-07-31T03:21:30;16.00;99.90
22065;DHT22;11197;53.110;8.468;2023-07-31T03:23:57;16.00;99.90
22065;DHT22;11197;53.110;8.468;2023-07-31T03:26:22;16.10;99.90
22065;DHT22;11197;53.110;8.468;2023-07-31T03:28:48;16.10;99.90
22065;DHT22;11197;53.110;8.468;2023-07-31T03:31:15;16.20;99.90
22065;DHT22;11197;53.110;8.468;2023-07-31T03:33:40;16.20;99.90
22065;DHT22;11197;53.110;8.468;2023-07-31T03:36:06;16.20;99.90
22065;DHT22;11197;53.110;8.468;2023-07-31T03:38:34;16.20;99.90
22065;DHT22;11197;53.110;8.468;2023-07-31T03:40:59;16.20;99.90
22065;DHT22;11197;53.110;8.468;2023-07-31T03:43:25;16.20;99.90
22065;DHT22;11197;53.110;8.468;2023-07-31T03:45:52;16.20;99.90
22065;DHT22;11197;53.110;8.468;2023-07-31T03:48:17;16.20;99.90
22065;DHT22;11197;53.110;8.468;2023-07-31T03:50:43;16.20;99.90
22065;DHT22;11197;53.110;8.468;2023-07-31T03:53:09;16.20;99.90
22065;DHT22;11197;53.110;8.468;2023-07-31T03:55:35;16.20;99.90
22065;DHT22;11197;53.110;8.468;2023-07-31T03:58:00;16.20;99.90
22065;DHT22;11197;53.110;8.468;2023-07-31T04:00:27;16.20;99.90
22065;DHT22;11197;53.110;8.468;2023-07-31T04:02:52;16.20;99.90
22065;DHT22;11197;53.110;8.468;2023-07-31T04:05:18;16.20;99.90
22065;DHT22;11197;53.110;8.468;2023-07-31T04:07:44;16.20;99.90
22065;DHT22;11197;53.110;8.468;2023-07-31T04:10:10;16.20;99.90
22065;DHT22;11197;53.110;8.468;2023-07-31T04:12:35;16.20;99.90
22065;DHT22;11197;53.110;8.468;2023-07-31T04:15:01;16.20;99.90
22065;DHT22;11197;53.110;8.468;2023-07-31T04:17:27;16.20;99.90
22065;DHT22;11197;53.110;8.468;2023-07-31T04:19:52;16.20;99.90
22065;DHT22;11197;53.110;8.468;2023-07-31T04:22:18;16.20;99.90
22065;DHT22;11197;53.110;8.468;2023-07-31T04:24:44;16.20;99.90
22065;DHT22;11197;53.110;8.468;2023-07-31T04:27:10;16.20;99.90
22065;DHT22;11197;53.110;8.468;2023-07-31T04:29:35;16.20;99.90
22065;DHT22;11197;53.110;8.468;2023-07-31T04:32:01;16.10;99.90
22065;DHT22;11197;53.110;8.468;2023-07-31T04:34:27;16.10;99.90
22065;DHT22;11197;53.110;8.468;2023-07-31T04:36:52;16.10;99.90
22065;DHT22;11197;53.110;8.468;2023-07-31T04:39:18;16.10;99.90
22065;DHT22;11197;53.110;8.468;2023-07-31T04:41:44;16.10;99.90
22065;DHT22;11197;53.110;8.468;2023-07-31T04:44:09;16.10;99.90
22065;DHT22;11197;53.110;8.468;2023-07-31T04:46:36;16.00;99.90
22065;DHT22;11197;53.110;8.468;2023-07-31T04:49:03;16.00;99.90
22065;DHT22;11197;53.110;8.468;2023-07-31T04:51:28;16.00;99.90
22065;DHT22;11197;53.110;8.468;2023-07-31T04:53:54;16.00;99.90
22065;DHT22;11197;53.110;8.468;2023-07-31T04:56:20;16.10;99.90
22065;DHT22;11197;53.110;8.468;2023-07-31T04:58:45;16.10;99.90
22065;DHT22;11197;53.110;8.468;2023-07-31T05:01:11;16.00;99.90
22065;DHT22;11197;53.110;8.468;2023-07-31T05:03:37;16.10;99.90
22065;DHT22;11197;53.110;8.468;2023-07-31T05:06:02;16.10;99.90
22065;DHT22;11197;53.110;8.468;2023-07-31T05:08:28;16.10;99.90
22065;DHT22;11197;53.110;8.468;2023-07-31T05:10:54;16.10;99.90
22065;DHT22;11197;53.110;8.468;2023-07-31T05:13:20;16.10;99.90
22065;DHT22;11197;53.110;8.468;2023-07-31T05:15:45;16.10;99.90
22065;DHT22;11197;53.110;8.468;2023-07-31T05:18:11;16.10;99.90
22065;DHT22;11197;53.110;8.468;2023-07-31T05:20:37;16.10;99.90
22065;DHT22;11197;53.110;8.468;2023-07-31T05:23:03;16.10;99.90
22065;DHT22;11197;53.110;8.468;2023-07-31T05:25:29;16.10;99.90
22065;DHT22;11197;53.110;8.468;2023-07-31T05:27:54;16.20;99.90
22065;DHT22;11197;53.110;8.468;2023-07-31T05:30:20;16.40;99.90
22065;DHT22;11197;53.110;8.468;2023-07-31T05:32:46;16.60;99.90
22065;DHT22;11197;53.110;8.468;2023-07-31T05:35:12;16.60;99.90
22065;DHT22;11197;53.110;8.468;2023-07-31T05:37:38;16.70;99.90
22065;DHT22;11197;53.110;8.468;2023-07-31T05:40:04;16.50;99.90
22065;DHT22;11197;53.110;8.468;2023-07-31T05:42:30;16.50;99.90
22065;DHT22;11197;53.110;8.468;2023-07-31T05:44:55;16.40;99.90
22065;DHT22;11197;53.110;8.468;2023-07-31T05:47:21;16.40;99.90
22065;DHT22;11197;53.110;8.468;2023-07-31T05:49:48;16.30;99.90
22065;DHT22;11197;53.110;8.468;2023-07-31T05:52:14;16.30;99.90
22065;DHT22;11197;53.110;8.468;2023-07-31T05:54:41;16.30;99.90
22065;DHT22;11197;53.110;8.468;2023-07-31T05:57:07;16.30;99.90
22065;DHT22;11197;53.110;8.468;2023-07-31T05:59:33;16.30;99.90
22065;DHT22;11197;53.110;8.468;2023-07-31T06:01:59;16.20;99.90
22065;DHT22;11197;53.110;8.468;2023-07-31T06:04:25;16.20;99.90
22065;DHT22;11197;53.110;8.468;2023-07-31T06:06:51;16.20;99.90
22065;DHT22;11197;53.110;8.468;2023-07-31T06:09:17;16.20;99.90
22065;DHT22;11197;53.110;8.468;2023-07-31T06:11:43;16.20;99.90
22065;DHT22;11197;53.110;8.468;2023-07-31T06:14:08;16.30;99.90
22065;DHT22;11197;53.110;8.468;2023-07-31T06:16:34;16.30;99.90
22065;DHT22;11197;53.110;8.468;2023-07-31T06:19:00;16.30;99.90
22065;DHT22;11197;53.110;8.468;2023-07-31T06:21:26;16.30;99.90
22065;DHT22;11197;53.110;8.468;2023-07-31T06:23:52;16.30;99.90
22065;DHT22;11197;53.110;8.468;2023-07-31T06:26:17;16.40;99.90
22065;DHT22;11197;53.110;8.468;2023-07-31T06:28:43;16.40;99.90
22065;DHT22;11197;53.110;8.468;2023-07-31T06:31:09;16.40;99.90
22065;DHT22;11197;53.110;8.468;2023-07-31T06:33:35;16.40;99.90
22065;DHT22;11197;53.110;8.468;2023-07-31T06:36:01;16.40;99.90
22065;DHT22;11197;53.110;8.468;2023-07-31T06:38:27;16.40;99.90
22065;DHT22;11197;53.110;8.468;2023-07-31T06:40:53;16.40;99.90
22065;DHT22;11197;53.110;8.468;2023-07-31T06:43:19;16.40;99.90
22065;DHT22;11197;53.110;8.468;2023-07-31T06:45:44;16.40;99.90
22065;DHT22;11197;53.110;8.468;2023-07-31T06:48:11;16.40;99.90
22065;DHT22;11197;53.110;8.468;2023-07-31T06:50:37;16.40;99.90
22065;DHT22;11197;53.110;8.468;2023-07-31T06:53:03;16.50;99.90
22065;DHT22;11197;53.110;8.468;2023-07-31T06:55:28;16.50;99.90
22065;DHT22;11197;53.110;8.468;2023-07-31T06:57:55;16.50;99.90
22065;DHT22;11197;53.110;8.468;2023-07-31T07:00:22;16.50;99.90
22065;DHT22;11197;53.110;8.468;2023-07-31T07:02:49;16.60;99.90
22065;DHT22;11197;53.110;8.468;2023-07-31T07:05:16;16.50;99.90
22065;DHT22;11197;53.110;8.468;2023-07-31T07:07:42;16.60;99.90
22065;DHT22;11197;53.110;8.468;2023-07-31T07:10:09;16.60;99.90
22065;DHT22;11197;53.110;8.468;2023-07-31T07:12:35;16.60;99.90
22065;DHT22;11197;53.110;8.468;2023-07-31T07:15:01;16.70;99.90
22065;DHT22;11197;53.110;8.468;2023-07-31T07:17:29;16.70;99.90
22065;DHT22;11197;53.110;8.468;2023-07-31T07:19:57;16.70;99.90
22065;DHT22;11197;53.110;8.468;2023-07-31T07:22:23;16.70;99.90
22065;DHT22;11197;53.110;8.468;2023-07-31T07:24:49;16.70;99.90
22065;DHT22;11197;53.110;8.468;2023-07-31T07:27:15;16.70;99.90
22065;DHT22;11197;53.110;8.468;2023-07-31T07:29:41;16.70;99.90
22065;DHT22;11197;53.110;8.468;2023-07-31T07:32:06;16.70;99.90
22065;DHT22;11197;53.110;8.468;2023-07-31T07:34:33;16.80;99.90
22065;DHT22;11197;53.110;8.468;2023-07-31T07:36:59;16.80;99.90
22065;DHT22;11197;53.110;8.468;2023-07-31T07:39:24;16.80;99.90
22065;DHT22;11197;53.110;8.468;2023-07-31T07:41:50;16.70;99.90
22065;DHT22;11197;53.110;8.468;2023-07-31T07:44:16;16.70;99.90
22065;DHT22;11197;53.110;8.468;2023-07-31T07:46:42;16.70;99.90
22065;DHT22;11197;53.110;8.468;2023-07-31T07:49:07;16.80;99.90
22065;DHT22;11197;53.110;8.468;2023-07-31T07:51:33;16.70;99.90
22065;DHT22;11197;53.110;8.468;2023-07-31T07:53:59;16.80;99.90
22065;DHT22;11197;53.110;8.468;2023-07-31T07:56:28;16.80;99.90
22065;DHT22;11197;53.110;8.468;2023-07-31T07:58:54;16.80;99.90
22065;DHT22;11197;53.110;8.468;2023-07-31T08:01:20;16.80;99.90
22065;DHT22;11197;53.110;8.468;2023-07-31T08:03:46;16.80;99.90
22065;DHT22;11197;53.110;8.468;2023-07-31T08:06:12;16.80;99.90
22065;DHT22;11197;53.110;8.468;2023-07-31T08:08:38;16.90;99.90
22065;DHT22;11197;53.110;8.468;2023-07-31T08:11:04;16.90;99.90
22065;DHT22;11197;53.110;8.468;2023-07-31T08:13:30;16.90;99.90
22065;DHT22;11197;53.110;8.468;2023-07-31T08:15:56;16.90;99.90
22065;DHT22;11197;53.110;8.468;2023-07-31T08:18:22;17.00;99.90
22065;DHT22;11197;53.110;8.468;2023-07-31T08:20:47;17.00;99.90
22065;DHT22;11197;53.110;8.468;2023-07-31T08:23:13;17.00;99.90
22065;DHT22;11197;53.110;8.468;2023-07-31T08:25:39;17.00;99.90
22065;DHT22;11197;53.110;8.468;2023-07-31T08:28:05;17.10;99.90
22065;DHT22;11197;53.110;8.468;2023-07-31T08:30:51;17.10;99.90
22065;DHT22;11197;53.110;8.468;2023-07-31T08:33:17;17.10;99.90
22065;DHT22;11197;53.110;8.468;2023-07-31T08:35:42;17.10;99.90
22065;DHT22;11197;53.110;8.468;2023-07-31T08:38:08;17.10;99.90
22065;DHT22;11197;53.110;8.468;2023-07-31T08:45:38;17.20;99.90
22065;DHT22;11197;53.110;8.468;2023-07-31T08:48:07;17.20;99.90
22065;DHT22;11197;53.110;8.468;2023-07-31T08:50:33;17.20;99.90
22065;DHT22;11197;53.110;8.468;2023-07-31T08:52:58;17.20;99.90
22065;DHT22;11197;53.110;8.468;2023-07-31T08:55:24;17.30;99.90
22065;DHT22;11197;53.110;8.468;2023-07-31T08:57:52;17.30;99.90
22065;DHT22;11197;53.110;8.468;2023-07-31T09:00:21;17.30;99.90
22065;DHT22;11197;53.110;8.468;2023-07-31T09:03:02;17.40;99.90
22065;DHT22;11197;53.110;8.468;2023-07-31T09:05:30;17.40;99.90
22065;DHT22;11197;53.110;8.468;2023-07-31T09:07:56;17.40;99.90
22065;DHT22;11197;53.110;8.468;2023-07-31T09:10:23;17.40;99.90
22065;DHT22;11197;53.110;8.468;2023-07-31T09:12:51;17.40;99.90
22065;DHT22;11197;53.110;8.468;2023-07-31T09:15:17;17.40;99.90
22065;DHT22;11197;53.110;8.468;2023-07-31T09:17:43;17.40;99.90
22065;DHT22;11197;53.110;8.468;2023-07-31T09:22:39;17.50;99.90
22065;DHT22;11197;53.110;8.468;2023-07-31T09:25:21;17.60;99.90
22065;DHT22;11197;53.110;8.468;2023-07-31T09:27:57;17.60;99.90
22065;DHT22;11197;53.110;8.468;2023-07-31T09:30:23;17.60;99.90
22065;DHT22;11197;53.110;8.468;2023-07-31T09:32:51;17.50;99.90
22065;DHT22;11197;53.110;8.468;2023-07-31T09:37:52;17.50;99.90
22065;DHT22;11197;53.110;8.468;2023-07-31T09:40:41;17.60;99.90
22065;DHT22;11197;53.110;8.468;2023-07-31T09:43:08;17.60;99.90
22065;DHT22;11197;53.110;8.468;2023-07-31T09:45:38;17.60;99.90
22065;DHT22;11197;53.110;8.468;2023-07-31T09:48:13;17.70;99.90
22065;DHT22;11197;53.110;8.468;2023-07-31T09:50:45;17.70;99.90
22065;DHT22;11197;53.110;8.468;2023-07-31T09:53:11;17.80;99.90
22065;DHT22;11197;53.110;8.468;2023-07-31T09:55:38;17.70;99.90
22065;DHT22;11197;53.110;8.468;2023-07-31T09:58:08;17.70;99.90
22065;DHT22;11197;53.110;8.468;2023-07-31T10:00:35;17.80;99.90
22065;DHT22;11197;53.110;8.468;2023-07-31T10:03:04;17.80;99.90
22065;DHT22;11197;53.110;8.468;2023-07-31T10:05:45;17.80;99.90
22065;DHT22;11197;53.110;8.468;2023-07-31T10:08:14;17.80;99.90
22065;DHT22;11197;53.110;8.468;2023-07-31T10:10:44;17.80;99.90
22065;DHT22;11197;53.110;8.468;2023-07-31T10:13:11;17.80;99.90
22065;DHT22;11197;53.110;8.468;2023-07-31T10:15:37;17.90;99.90
22065;DHT22;11197;53.110;8.468;2023-07-31T10:18:06;17.90;99.90
22065;DHT22;11197;53.110;8.468;2023-07-31T10:20:31;17.90;99.90
22065;DHT22;11197;53.110;8.468;2023-07-31T10:22:57;17.90;99.90
22065;DHT22;11197;53.110;8.468;2023-07-31T10:25:26;17.90;99.90
22065;DHT22;11197;53.110;8.468;2023-07-31T10:27:52;17.90;99.90
22065;DHT22;11197;53.110;8.468;2023-07-31T10:30:22;18.00;99.90
22065;DHT22;11197;53.110;8.468;2023-07-31T10:32:53;18.00;99.90
22065;DHT22;11197;53.110;8.468;2023-07-31T10:35:20;18.00;99.90
22065;DHT22;11197;53.110;8.468;2023-07-31T10:37:48;18.10;99.90
22065;DHT22;11197;53.110;8.468;2023-07-31T10:40:27;18.10;99.90
22065;DHT22;11197;53.110;8.468;2023-07-31T10:42:55;18.30;99.90
22065;DHT22;11197;53.110;8.468;2023-07-31T10:45:52;18.30;99.90
22065;DHT22;11197;53.110;8.468;2023-07-31T10:48:19;18.40;99.90
22065;DHT22;11197;53.110;8.468;2023-07-31T10:50:52;18.30;99.90
22065;DHT22;11197;53.110;8.468;2023-07-31T10:53:31;18.30;99.90
22065;DHT22;11197;53.110;8.468;2023-07-31T10:56:01;18.30;99.90
22065;DHT22;11197;53.110;8.468;2023-07-31T10:58:27;18.40;99.90
22065;DHT22;11197;53.110;8.468;2023-07-31T11:00:56;18.30;99.90
22065;DHT22;11197;53.110;8.468;2023-07-31T11:03:26;18.40;99.90
22065;DHT22;11197;53.110;8.468;2023-07-31T11:08:34;18.40;99.90
22065;DHT22;11197;53.110;8.468;2023-07-31T11:13:44;18.40;99.90
22065;DHT22;11197;53.110;8.468;2023-07-31T11:16:12;18.40;99.90
22065;DHT22;11197;53.110;8.468;2023-07-31T11:18:42;18.40;99.90
22065;DHT22;11197;53.110;8.468;2023-07-31T11:21:09;18.40;99.90
22065;DHT22;11197;53.110;8.468;2023-07-31T11:23:37;18.50;99.90
22065;DHT22;11197;53.110;8.468;2023-07-31T11:26:05;18.50;99.90
22065;DHT22;11197;53.110;8.468;2023-07-31T11:28:32;18.50;99.90
22065;DHT22;11197;53.110;8.468;2023-07-31T11:31:02;18.50;99.90
22065;DHT22;11197;53.110;8.468;2023-07-31T11:33:28;18.50;99.90
22065;DHT22;11197;53.110;8.468;2023-07-31T11:35:54;18.60;99.90
22065;DHT22;11197;53.110;8.468;2023-07-31T11:38:33;18.60;99.90
22065;DHT22;11197;53.110;8.468;2023-07-31T11:41:04;18.60;99.90
22065;DHT22;11197;53.110;8.468;2023-07-31T11:43:31;18.60;99.90
22065;DHT22;11197;53.110;8.468;2023-07-31T11:46:00;18.60;99.90
22065;DHT22;11197;53.110;8.468;2023-07-31T11:48:30;18.60;99.90
22065;DHT22;11197;53.110;8.468;2023-07-31T11:51:01;18.60;99.90
22065;DHT22;11197;53.110;8.468;2023-07-31T11:53:47;18.60;99.90
22065;DHT22;11197;53.110;8.468;2023-07-31T11:56:18;18.60;99.90
22065;DHT22;11197;53.110;8.468;2023-07-31T11:58:46;18.60;99.90
22065;DHT22;11197;53.110;8.468;2023-07-31T12:01:15;18.60;99.90
22065;DHT22;11197;53.110;8.468;2023-07-31T12:03:41;18.60;99.90
22065;DHT22;11197;53.110;8.468;2023-07-31T12:06:08;18.70;99.90
22065;DHT22;11197;53.110;8.468;2023-07-31T12:08:36;18.70;99.90
22065;DHT22;11197;53.110;8.468;2023-07-31T12:11:05;18.70;99.90
22065;DHT22;11197;53.110;8.468;2023-07-31T12:13:31;18.70;99.90
22065;DHT22;11197;53.110;8.468;2023-07-31T12:16:02;18.70;99.90
22065;DHT22;11197;53.110;8.468;2023-07-31T12:18:34;18.70;99.90
22065;DHT22;11197;53.110;8.468;2023-07-31T12:21:02;18.70;99.90
22065;DHT22;11197;53.110;8.468;2023-07-31T12:23:30;18.80;99.90
22065;DHT22;11197;53.110;8.468;2023-07-31T12:26:07;18.80;99.90
22065;DHT22;11197;53.110;8.468;2023-07-31T12:31:08;18.80;99.90
22065;DHT22;11197;53.110;8.468;2023-07-31T12:33:40;18.70;99.90
22065;DHT22;11197;53.110;8.468;2023-07-31T12:36:14;18.80;99.90
22065;DHT22;11197;53.110;8.468;2023-07-31T12:38:41;18.80;99.90
22065;DHT22;11197;53.110;8.468;2023-07-31T12:41:07;18.80;99.90
22065;DHT22;11197;53.110;8.468;2023-07-31T12:43:37;18.80;99.90
22065;DHT22;11197;53.110;8.468;2023-07-31T12:46:04;18.80;99.90
22065;DHT22;11197;53.110;8.468;2023-07-31T12:48:30;18.80;99.90
22065;DHT22;11197;53.110;8.468;2023-07-31T12:50:56;18.80;99.90
22065;DHT22;11197;53.110;8.468;2023-07-31T12:53:22;18.80;99.90
22065;DHT22;11197;53.110;8.468;2023-07-31T12:55:49;18.90;99.90
22065;DHT22;11197;53.110;8.468;2023-07-31T12:58:15;18.90;99.90
22065;DHT22;11197;53.110;8.468;2023-07-31T13:00:41;18.90;99.90
22065;DHT22;11197;53.110;8.468;2023-07-31T13:03:08;18.90;99.90
22065;DHT22;11197;53.110;8.468;2023-07-31T13:05:33;19.00;99.90
22065;DHT22;11197;53.110;8.468;2023-07-31T13:07:59;19.00;99.90
22065;DHT22;11197;53.110;8.468;2023-07-31T13:10:25;18.90;99.90
22065;DHT22;11197;53.110;8.468;2023-07-31T13:12:55;18.90;99.90
22065;DHT22;11197;53.110;8.468;2023-07-31T13:15:21;19.00;99.90
22065;DHT22;11197;53.110;8.468;2023-07-31T13:17:47;19.00;99.90
22065;DHT22;11197;53.110;8.468;2023-07-31T13:20:13;18.90;99.90
22065;DHT22;11197;53.110;8.468;2023-07-31T13:22:39;18.90;99.90
22065;DHT22;11197;53.110;8.468;2023-07-31T13:25:05;18.90;99.90
22065;DHT22;11197;53.110;8.468;2023-07-31T13:27:31;18.90;99.90
22065;DHT22;11197;53.110;8.468;2023-07-31T13:29:57;18.90;99.90
22065;DHT22;11197;53.110;8.468;2023-07-31T13:32:23;18.90;99.90
22065;DHT22;11197;53.110;8.468;2023-07-31T13:34:49;18.90;99.90
22065;DHT22;11197;53.110;8.468;2023-07-31T13:37:15;18.90;99.90
22065;DHT22;11197;53.110;8.468;2023-07-31T13:39:44;18.90;99.90
22065;DHT22;11197;53.110;8.468;2023-07-31T13:42:10;18.90;99.90
22065;DHT22;11197;53.110;8.468;2023-07-31T13:44:38;18.90;99.90
22065;DHT22;11197;53.110;8.468;2023-07-31T13:47:04;18.90;99.90
22065;DHT22;11197;53.110;8.468;2023-07-31T13:49:30;18.80;99.90
22065;DHT22;11197;53.110;8.468;2023-07-31T13:51:56;18.90;99.90
22065;DHT22;11197;53.110;8.468;2023-07-31T13:54:25;18.90;99.90
22065;DHT22;11197;53.110;8.468;2023-07-31T13:56:52;18.90;99.90
22065;DHT22;11197;53.110;8.468;2023-07-31T13:59:18;18.90;99.90
22065;DHT22;11197;53.110;8.468;2023-07-31T14:01:45;18.80;99.90
22065;DHT22;11197;53.110;8.468;2023-07-31T14:04:11;18.90;99.90
22065;DHT22;11197;53.110;8.468;2023-07-31T14:06:38;18.90;99.90
22065;DHT22;11197;53.110;8.468;2023-07-31T14:09:04;18.90;99.90
22065;DHT22;11197;53.110;8.468;2023-07-31T14:11:31;18.90;99.90
22065;DHT22;11197;53.110;8.468;2023-07-31T14:13:57;18.90;99.90
22065;DHT22;11197;53.110;8.468;2023-07-31T14:16:23;18.90;99.90
22065;DHT22;11197;53.110;8.468;2023-07-31T14:18:49;18.90;99.90
22065;DHT22;11197;53.110;8.468;2023-07-31T14:21:16;18.80;99.90
22065;DHT22;11197;53.110;8.468;2023-07-31T14:23:42;18.80;99.90
22065;DHT22;11197;53.110;8.468;2023-07-31T14:26:08;18.90;99.90
22065;DHT22;11197;53.110;8.468;2023-07-31T14:28:34;18.80;99.90
22065;DHT22;11197;53.110;8.468;2023-07-31T14:31:00;18.90;99.90
22065;DHT22;11197;53.110;8.468;2023-07-31T14:33:26;19.00;99.90
22065;DHT22;11197;53.110;8.468;2023-07-31T14:35:52;19.10;99.90
22065;DHT22;11197;53.110;8.468;2023-07-31T14:38:18;19.20;99.90
22065;DHT22;11197;53.110;8.468;2023-07-31T14:40:43;19.20;99.90
22065;DHT22;11197;53.110;8.468;2023-07-31T14:43:09;19.20;99.90
22065;DHT22;11197;53.110;8.468;2023-07-31T14:45:35;19.20;99.90
22065;DHT22;11197;53.110;8.468;2023-07-31T14:48:01;19.10;99.90
22065;DHT22;11197;53.110;8.468;2023-07-31T14:50:26;19.10;99.90
22065;DHT22;11197;53.110;8.468;2023-07-31T14:52:52;19.10;99.90
22065;DHT22;11197;53.110;8.468;2023-07-31T14:55:18;19.10;99.90
22065;DHT22;11197;53.110;8.468;2023-07-31T14:57:44;19.20;99.90
22065;DHT22;11197;53.110;8.468;2023-07-31T15:00:10;19.10;99.90
22065;DHT22;11197;53.110;8.468;2023-07-31T15:02:37;19.20;99.90
22065;DHT22;11197;53.110;8.468;2023-07-31T15:05:03;19.10;99.90
22065;DHT22;11197;53.110;8.468;2023-07-31T15:07:32;19.10;99.90
22065;DHT22;11197;53.110;8.468;2023-07-31T15:09:58;19.20;99.90
22065;DHT22;11197;53.110;8.468;2023-07-31T15:12:24;19.20;99.90
22065;DHT22;11197;53.110;8.468;2023-07-31T15:14:50;19.30;99.90
22065;DHT22;11197;53.110;8.468;2023-07-31T15:17:17;19.30;99.90
22065;DHT22;11197;53.110;8.468;2023-07-31T15:19:43;19.30;99.90
22065;DHT22;11197;53.110;8.468;2023-07-31T15:22:09;19.30;99.90
22065;DHT22;11197;53.110;8.468;2023-07-31T15:24:37;19.30;99.90
22065;DHT22;11197;53.110;8.468;2023-07-31T15:27:03;19.30;99.90
22065;DHT22;11197;53.110;8.468;2023-07-31T15:29:30;19.20;99.90
22065;DHT22;11197;53.110;8.468;2023-07-31T15:31:56;19.20;99.90
22065;DHT22;11197;53.110;8.468;2023-07-31T15:34:22;19.20;99.90
22065;DHT22;11197;53.110;8.468;2023-07-31T15:36:49;19.30;99.90
22065;DHT22;11197;53.110;8.468;2023-07-31T15:39:16;19.30;99.90
22065;DHT22;11197;53.110;8.468;2023-07-31T15:41:41;19.30;99.90
22065;DHT22;11197;53.110;8.468;2023-07-31T15:44:08;19.40;99.90
22065;DHT22;11197;53.110;8.468;2023-07-31T15:46:34;19.40;99.90
22065;DHT22;11197;53.110;8.468;2023-07-31T15:49:01;19.40;99.90
22065;DHT22;11197;53.110;8.468;2023-07-31T15:51:28;19.40;99.90
22065;DHT22;11197;53.110;8.468;2023-07-31T15:53:54;19.30;99.90